sensor_id;sensor_type;location;lat;lon;timestamp;pressure;altitude;pressure_sealevel;temperature;humidity
59650;BME280;46162;57.568;25.814;2023-02-28T00:01:56;101774.84;;;-3.16;100.00
59650;BME280;46162;57.568;25.814;2023-02-28T00:04:26;101764.13;;;-3.10;100.00
59650;BME280;46162;57.568;25.814;2023-02-28T00:06:55;101764.88;;;-3.05;100.00
59650;BME280;46162;57.568;25.814;2023-02-28T00:09:23;101764.69;;;-2.97;100.00
59650;BME280;46162;57.568;25.814;2023-02-28T00:11:52;101768.81;;;-2.87;100.00
59650;BME280;46162;57.568;25.814;2023-02-28T00:14:20;101753.69;;;-2.82;100.00
59650;BME280;46162;57.568;25.814;2023-02-28T00:16:49;101748.25;;;-2.74;100.00
59650;BME280;46162;57.568;25.814;2023-02-28T00:19:18;101749.88;;;-2.70;100.00
59650;BME280;46162;57.568;25.814;2023-02-28T00:21:48;101761.28;;;-2.68;100.00
59650;BME280;46162;57.568;25.814;2023-02-28T00:24:16;101749.72;;;-2.64;100.00
59650;BME280;46162;57.568;25.814;2023-02-28T00:26:45;101763.72;;;-2.61;100.00
59650;BME280;46162;57.568;25.814;2023-02-28T00:29:13;101764.63;;;-2.62;100.00
59650;BME280;46162;57.568;25.814;2023-02-28T00:31:43;101768.06;;;-2.58;100.00
59650;BME280;46162;57.568;25.814;2023-02-28T00:34:12;101777.78;;;-2.58;100.00
59650;BME280;46162;57.568;25.814;2023-02-28T00:36:40;101760.94;;;-2.56;100.00
59650;BME280;46162;57.568;25.814;2023-02-28T00:39:13;101764.56;;;-2.58;100.00
59650;BME280;46162;57.568;25.814;2023-02-28T00:41:43;101757.47;;;-2.58;100.00
59650;BME280;46162;57.568;25.814;2023-02-28T00:44:13;101753.97;;;-2.58;100.00
59650;BME280;46162;57.568;25.814;2023-02-28T00:46:41;101746.06;;;-2.60;100.00
59650;BME280;46162;57.568;25.814;2023-02-28T00:49:10;101750.47;;;-2.59;100.00
59650;BME280;46162;57.568;25.814;2023-02-28T00:51:38;101735.50;;;-2.60;100.00
59650;BME280;46162;57.568;25.814;2023-02-28T00:54:07;101745.22;;;-2.61;100.00
59650;BME280;46162;57.568;25.814;2023-02-28T00:56:37;101743.41;;;-2.58;100.00
59650;BME280;46162;57.568;25.814;2023-02-28T00:59:06;101739.81;;;-2.56;100.00
59650;BME280;46162;57.568;25.814;2023-02-28T01:01:34;101735.44;;;-2.57;100.00
59650;BME280;46162;57.568;25.814;2023-02-28T01:04:03;101734.53;;;-2.57;100.00
59650;BME280;46162;57.568;25.814;2023-02-28T01:06:32;101725.72;;;-2.56;100.00
59650;BME280;46162;57.568;25.814;2023-02-28T01:09:02;101728.31;;;-2.55;100.00
59650;BME280;46162;57.568;25.814;2023-02-28T01:11:31;101722.13;;;-2.54;100.00
59650;BME280;46162;57.568;25.814;2023-02-28T01:14:02;101722.94;;;-2.52;100.00
59650;BME280;46162;57.568;25.814;2023-02-28T01:16:31;101722.00;;;-2.49;100.00
59650;BME280;46162;57.568;25.814;2023-02-28T01:19:02;101718.41;;;-2.47;100.00
59650;BME280;46162;57.568;25.814;2023-02-28T01:21:31;101721.91;;;-2.46;100.00
59650;BME280;46162;57.568;25.814;2023-02-28T01:23:59;101721.03;;;-2.47;100.00
59650;BME280;46162;57.568;25.814;2023-02-28T01:26:28;101722.66;;;-2.43;100.00
59650;BME280;46162;57.568;25.814;2023-02-28T01:28:57;101720.03;;;-2.43;100.00
59650;BME280;46162;57.568;25.814;2023-02-28T01:31:27;101734.03;;;-2.39;100.00
59650;BME280;46162;57.568;25.814;2023-02-28T01:33:56;101727.75;;;-2.35;100.00
59650;BME280;46162;57.568;25.814;2023-02-28T01:36:28;101723.34;;;-2.34;100.00
59650;BME280;46162;57.568;25.814;2023-02-28T01:38:57;101720.59;;;-2.31;100.00
59650;BME280;46162;57.568;25.814;2023-02-28T01:41:28;101714.38;;;-2.30;100.00
59650;BME280;46162;57.568;25.814;2023-02-28T01:44:03;101716.91;;;-2.26;100.00
59650;BME280;46162;57.568;25.814;2023-02-28T01:46:35;101716.06;;;-2.28;100.00
59650;BME280;46162;57.568;25.814;2023-02-28T01:49:07;101711.56;;;-2.24;100.00
59650;BME280;46162;57.568;25.814;2023-02-28T01:51:41;101705.25;;;-2.20;100.00
59650;BME280;46162;57.568;25.814;2023-02-28T01:54:15;101707.03;;;-2.21;100.00
59650;BME280;46162;57.568;25.814;2023-02-28T01:56:53;101707.84;;;-2.17;100.00
59650;BME280;46162;57.568;25.814;2023-02-28T01:59:26;101713.06;;;-2.16;100.00
59650;BME280;46162;57.568;25.814;2023-02-28T02:01:57;101712.06;;;-2.11;100.00
59650;BME280;46162;57.568;25.814;2023-02-28T02:04:33;101713.78;;;-2.10;100.00
59650;BME280;46162;57.568;25.814;2023-02-28T02:07:04;101715.56;;;-2.09;100.00
59650;BME280;46162;57.568;25.814;2023-02-28T02:09:33;101719.88;;;-2.07;100.00
59650;BME280;46162;57.568;25.814;2023-02-28T02:12:08;101718.09;;;-2.06;100.00
59650;BME280;46162;57.568;25.814;2023-02-28T02:14:51;101723.25;;;-2.02;100.00
59650;BME280;46162;57.568;25.814;2023-02-28T02:17:30;101723.22;;;-2.00;100.00
59650;BME280;46162;57.568;25.814;2023-02-28T02:20:27;101708.97;;;-1.96;100.00
59650;BME280;46162;57.568;25.814;2023-02-28T02:23:33;101709.63;;;-1.88;100.00
59650;BME280;46162;57.568;25.814;2023-02-28T02:26:47;101692.78;;;-1.85;100.00
59650;BME280;46162;57.568;25.814;2023-02-28T02:33:07;101679.19;;;-1.75;100.00
59650;BME280;46162;57.568;25.814;2023-02-28T02:35:47;101666.66;;;-1.69;100.00
59650;BME280;46162;57.568;25.814;2023-02-28T02:38:30;101657.72;;;-1.65;100.00
59650;BME280;46162;57.568;25.814;2023-02-28T02:41:08;101652.31;;;-1.62;100.00
59650;BME280;46162;57.568;25.814;2023-02-28T02:43:43;101640.88;;;-1.63;100.00
59650;BME280;46162;57.568;25.814;2023-02-28T02:46:17;101637.03;;;-1.54;100.00
59650;BME280;46162;57.568;25.814;2023-02-28T02:48:48;101635.25;;;-1.54;100.00
59650;BME280;46162;57.568;25.814;2023-02-28T02:51:23;101640.47;;;-1.50;100.00
59650;BME280;46162;57.568;25.814;2023-02-28T02:53:56;101627.00;;;-1.44;100.00
59650;BME280;46162;57.568;25.814;2023-02-28T02:56:28;101633.00;;;-1.39;100.00
59650;BME280;46162;57.568;25.814;2023-02-28T02:59:03;101629.38;;;-1.37;100.00
59650;BME280;46162;57.568;25.814;2023-02-28T03:01:33;101626.81;;;-1.38;100.00
59650;BME280;46162;57.568;25.814;2023-02-28T03:04:05;101618.78;;;-1.37;100.00
59650;BME280;46162;57.568;25.814;2023-02-28T03:06:37;101612.47;;;-1.33;100.00
59650;BME280;46162;57.568;25.814;2023-02-28T03:09:05;101604.47;;;-1.31;100.00
59650;BME280;46162;57.568;25.814;2023-02-28T03:11:35;101602.56;;;-1.27;100.00
59650;BME280;46162;57.568;25.814;2023-02-28T03:14:14;101598.91;;;-1.23;100.00
59650;BME280;46162;57.568;25.814;2023-02-28T03:17:12;101598.91;;;-1.23;100.00
59650;BME280;46162;57.568;25.814;2023-02-28T03:20:01;101598.91;;;-1.23;100.00
59650;BME280;46162;57.568;25.814;2023-02-28T03:22:59;101587.25;;;-1.19;100.00
59650;BME280;46162;57.568;25.814;2023-02-28T03:25:36;101583.75;;;-1.20;100.00
59650;BME280;46162;57.568;25.814;2023-02-28T03:28:10;101580.91;;;-1.14;100.00
59650;BME280;46162;57.568;25.814;2023-02-28T03:30:46;101562.22;;;-1.11;100.00
59650;BME280;46162;57.568;25.814;2023-02-28T03:33:21;101569.13;;;-1.06;100.00
59650;BME280;46162;57.568;25.814;2023-02-28T03:35:52;101567.28;;;-1.04;100.00
59650;BME280;46162;57.568;25.814;2023-02-28T03:38:27;101559.25;;;-1.01;100.00
59650;BME280;46162;57.568;25.814;2023-02-28T03:41:01;101543.22;;;-0.98;100.00
59650;BME280;46162;57.568;25.814;2023-02-28T03:43:36;101536.09;;;-0.96;100.00
59650;BME280;46162;57.568;25.814;2023-02-28T03:46:09;101527.19;;;-0.95;100.00
59650;BME280;46162;57.568;25.814;2023-02-28T03:48:41;101518.06;;;-0.87;100.00
59650;BME280;46162;57.568;25.814;2023-02-28T03:51:15;101512.84;;;-0.90;100.00
59650;BME280;46162;57.568;25.814;2023-02-28T03:53:50;101507.38;;;-0.85;100.00
59650;BME280;46162;57.568;25.814;2023-02-28T03:56:22;101505.66;;;-0.86;100.00
59650;BME280;46162;57.568;25.814;2023-02-28T03:58:55;101501.09;;;-0.82;100.00
59650;BME280;46162;57.568;25.814;2023-02-28T04:01:29;101498.44;;;-0.82;100.00
59650;BME280;46162;57.568;25.814;2023-02-28T04:03:59;101494.81;;;-0.80;100.00
59650;BME280;46162;57.568;25.814;2023-02-28T04:06:31;101501.03;;;-0.81;100.00
59650;BME280;46162;57.568;25.814;2023-02-28T04:09:02;101493.81;;;-0.77;100.00
59650;BME280;46162;57.568;25.814;2023-02-28T04:11:33;101496.47;;;-0.77;100.00
59650;BME280;46162;57.568;25.814;2023-02-28T04:14:04;101498.25;;;-0.78;100.00
59650;BME280;46162;57.568;25.814;2023-02-28T04:16:37;101492.84;;;-0.75;100.00
59650;BME280;46162;57.568;25.814;2023-02-28T04:19:10;101490.25;;;-0.76;100.00
59650;BME280;46162;57.568;25.814;2023-02-28T04:21:41;101486.63;;;-0.74;100.00
59650;BME280;46162;57.568;25.814;2023-02-28T04:24:13;101502.53;;;-0.74;100.00
59650;BME280;46162;57.568;25.814;2023-02-28T04:26:47;101498.91;;;-0.71;100.00
59650;BME280;46162;57.568;25.814;2023-02-28T04:29:24;101502.44;;;-0.72;100.00
59650;BME280;46162;57.568;25.814;2023-02-28T04:31:56;101494.44;;;-0.71;100.00
59650;BME280;46162;57.568;25.814;2023-02-28T04:34:31;101499.00;;;-0.74;100.00
59650;BME280;46162;57.568;25.814;2023-02-28T04:37:03;101501.72;;;-0.76;100.00
59650;BME280;46162;57.568;25.814;2023-02-28T04:39:41;101508.75;;;-0.75;100.00
59650;BME280;46162;57.568;25.814;2023-02-28T04:42:10;101515.78;;;-0.74;100.00
59650;BME280;46162;57.568;25.814;2023-02-28T04:48:27;101510.41;;;-0.72;100.00
59650;BME280;46162;57.568;25.814;2023-02-28T04:51:03;101509.69;;;-0.76;100.00
59650;BME280;46162;57.568;25.814;2023-02-28T04:53:37;101505.28;;;-0.77;100.00
59650;BME280;46162;57.568;25.814;2023-02-28T04:56:13;101503.34;;;-0.72;100.00
59650;BME280;46162;57.568;25.814;2023-02-28T04:58:47;101490.09;;;-0.72;100.00
59650;BME280;46162;57.568;25.814;2023-02-28T05:01:22;101486.53;;;-0.72;100.00
59650;BME280;46162;57.568;25.814;2023-02-28T05:03:53;101486.50;;;-0.71;100.00
59650;BME280;46162;57.568;25.814;2023-02-28T05:06:31;101486.63;;;-0.74;100.00
59650;BME280;46162;57.568;25.814;2023-02-28T05:09:10;101488.34;;;-0.73;100.00
59650;BME280;46162;57.568;25.814;2023-02-28T05:11:44;101479.53;;;-0.73;100.00
59650;BME280;46162;57.568;25.814;2023-02-28T05:14:15;101468.75;;;-0.69;100.00
59650;BME280;46162;57.568;25.814;2023-02-28T05:16:47;101468.56;;;-0.64;100.00
59650;BME280;46162;57.568;25.814;2023-02-28T05:19:16;101465.09;;;-0.66;100.00
59650;BME280;46162;57.568;25.814;2023-02-28T05:21:53;101463.94;;;-0.59;100.00
59650;BME280;46162;57.568;25.814;2023-02-28T05:24:25;101464.97;;;-0.63;100.00
59650;BME280;46162;57.568;25.814;2023-02-28T05:27:00;101459.81;;;-0.66;100.00
59650;BME280;46162;57.568;25.814;2023-02-28T05:29:37;101469.28;;;-0.60;100.00
59650;BME280;46162;57.568;25.814;2023-02-28T05:32:09;101469.41;;;-0.63;100.00
59650;BME280;46162;57.568;25.814;2023-02-28T05:34:39;101466.63;;;-0.60;100.00
59650;BME280;46162;57.568;25.814;2023-02-28T05:37:11;101461.34;;;-0.60;100.00
59650;BME280;46162;57.568;25.814;2023-02-28T05:39:40;101454.22;;;-0.60;100.00
59650;BME280;46162;57.568;25.814;2023-02-28T05:42:10;101458.69;;;-0.60;100.00
59650;BME280;46162;57.568;25.814;2023-02-28T05:44:38;101462.16;;;-0.58;100.00
59650;BME280;46162;57.568;25.814;2023-02-28T05:47:07;101459.44;;;-0.57;100.00
59650;BME280;46162;57.568;25.814;2023-02-28T05:49:35;101453.25;;;-0.57;100.00
59650;BME280;46162;57.568;25.814;2023-02-28T05:52:04;101439.06;;;-0.56;100.00
59650;BME280;46162;57.568;25.814;2023-02-28T05:54:33;101450.59;;;-0.57;100.00
59650;BME280;46162;57.568;25.814;2023-02-28T05:57:01;101444.38;;;-0.56;100.00
59650;BME280;46162;57.568;25.814;2023-02-28T05:59:39;101444.13;;;-0.50;100.00
59650;BME280;46162;57.568;25.814;2023-02-28T06:02:10;101441.41;;;-0.49;100.00
59650;BME280;46162;57.568;25.814;2023-02-28T06:04:40;101436.16;;;-0.50;100.00
59650;BME280;46162;57.568;25.814;2023-02-28T06:07:09;101449.28;;;-0.47;100.00
59650;BME280;46162;57.568;25.814;2023-02-28T06:09:38;101451.16;;;-0.49;100.00
59650;BME280;46162;57.568;25.814;2023-02-28T06:12:06;101449.19;;;-0.44;100.00
59650;BME280;46162;57.568;25.814;2023-02-28T06:14:36;101450.91;;;-0.43;100.00
59650;BME280;46162;57.568;25.814;2023-02-28T06:17:06;101466.78;;;-0.41;100.00
59650;BME280;46162;57.568;25.814;2023-02-28T06:19:37;101466.59;;;-0.37;100.00
59650;BME280;46162;57.568;25.814;2023-02-28T06:22:08;101459.47;;;-0.36;100.00
59650;BME280;46162;57.568;25.814;2023-02-28T06:24:36;101452.50;;;-0.39;100.00
59650;BME280;46162;57.568;25.814;2023-02-28T06:27:05;101458.63;;;-0.37;100.00
59650;BME280;46162;57.568;25.814;2023-02-28T06:29:34;101463.00;;;-0.36;100.00
59650;BME280;46162;57.568;25.814;2023-02-28T06:32:03;101461.16;;;-0.34;100.00
59650;BME280;46162;57.568;25.814;2023-02-28T06:34:33;101460.06;;;-0.30;100.00
59650;BME280;46162;57.568;25.814;2023-02-28T06:37:02;101460.28;;;-0.34;100.00
59650;BME280;46162;57.568;25.814;2023-02-28T06:39:31;101454.00;;;-0.32;100.00
59650;BME280;46162;57.568;25.814;2023-02-28T06:41:59;101448.69;;;-0.32;100.00
59650;BME280;46162;57.568;25.814;2023-02-28T06:44:28;101445.91;;;-0.29;100.00
59650;BME280;46162;57.568;25.814;2023-02-28T06:47:03;101444.97;;;-0.28;100.00
59650;BME280;46162;57.568;25.814;2023-02-28T06:49:34;101443.09;;;-0.26;100.00
59650;BME280;46162;57.568;25.814;2023-02-28T06:52:27;101430.78;;;-0.27;100.00
59650;BME280;46162;57.568;25.814;2023-02-28T06:54:58;101429.84;;;-0.26;100.00
59650;BME280;46162;57.568;25.814;2023-02-28T06:57:28;101424.41;;;-0.23;100.00
59650;BME280;46162;57.568;25.814;2023-02-28T06:59:58;101426.06;;;-0.20;100.00
59650;BME280;46162;57.568;25.814;2023-02-28T07:02:27;101412.59;;;-0.15;100.00
59650;BME280;46162;57.568;25.814;2023-02-28T07:04:57;101412.75;;;-0.18;100.00
59650;BME280;46162;57.568;25.814;2023-02-28T07:07:26;101418.75;;;-0.15;100.00
59650;BME280;46162;57.568;25.814;2023-02-28T07:09:54;101406.28;;;-0.13;100.00
59650;BME280;46162;57.568;25.814;2023-02-28T07:12:23;101417.72;;;-0.11;100.00
59650;BME280;46162;57.568;25.814;2023-02-28T07:14:52;101415.81;;;-0.07;100.00
59650;BME280;46162;57.568;25.814;2023-02-28T07:17:21;101408.03;;;-0.12;100.00
59650;BME280;46162;57.568;25.814;2023-02-28T07:19:49;101416.72;;;-0.08;100.00
59650;BME280;46162;57.568;25.814;2023-02-28T07:22:19;101400.00;;;-0.10;100.00
59650;BME280;46162;57.568;25.814;2023-02-28T07:24:48;101391.91;;;-0.07;100.00
59650;BME280;46162;57.568;25.814;2023-02-28T07:27:17;101395.44;;;-0.07;100.00
59650;BME280;46162;57.568;25.814;2023-02-28T07:29:51;101399.66;;;-0.03;100.00
59650;BME280;46162;57.568;25.814;2023-02-28T07:32:21;101407.63;;;-0.03;100.00
59650;BME280;46162;57.568;25.814;2023-02-28T07:34:50;101398.34;;;0.08;100.00
59650;BME280;46162;57.568;25.814;2023-02-28T07:37:20;101404.72;;;0.04;100.00
59650;BME280;46162;57.568;25.814;2023-02-28T07:39:48;101384.84;;;0.12;100.00
59650;BME280;46162;57.568;25.814;2023-02-28T07:42:18;101386.44;;;0.16;100.00
59650;BME280;46162;57.568;25.814;2023-02-28T07:44:46;101386.06;;;0.05;100.00
59650;BME280;46162;57.568;25.814;2023-02-28T07:47:15;101374.38;;;0.09;100.00
59650;BME280;46162;57.568;25.814;2023-02-28T07:49:45;101360.19;;;0.10;100.00
59650;BME280;46162;57.568;25.814;2023-02-28T07:52:13;101359.19;;;0.13;100.00
59650;BME280;46162;57.568;25.814;2023-02-28T07:54:43;101360.88;;;0.14;100.00
59650;BME280;46162;57.568;25.814;2023-02-28T07:57:12;101363.59;;;0.12;100.00
59650;BME280;46162;57.568;25.814;2023-02-28T07:59:40;101351.94;;;0.16;100.00
59650;BME280;46162;57.568;25.814;2023-02-28T08:02:12;101343.91;;;0.18;100.00
59650;BME280;46162;57.568;25.814;2023-02-28T08:04:42;101335.72;;;0.23;100.00
59650;BME280;46162;57.568;25.814;2023-02-28T08:07:12;101330.13;;;0.29;100.00
59650;BME280;46162;57.568;25.814;2023-02-28T08:09:41;101330.06;;;0.30;100.00
59650;BME280;46162;57.568;25.814;2023-02-28T08:12:11;101314.56;;;0.40;100.00
59650;BME280;46162;57.568;25.814;2023-02-28T08:14:40;101325.19;;;0.40;100.00
59650;BME280;46162;57.568;25.814;2023-02-28T08:17:09;101329.91;;;0.33;100.00
59650;BME280;46162;57.568;25.814;2023-02-28T08:19:38;101344.44;;;0.45;100.00
59650;BME280;46162;57.568;25.814;2023-02-28T08:22:06;101349.88;;;0.42;100.00
59650;BME280;46162;57.568;25.814;2023-02-28T08:24:35;101352.75;;;0.56;100.00
59650;BME280;46162;57.568;25.814;2023-02-28T08:27:04;101323.03;;;0.48;100.00
59650;BME280;46162;57.568;25.814;2023-02-28T08:29:34;101324.63;;;0.52;100.00
59650;BME280;46162;57.568;25.814;2023-02-28T08:32:05;101323.69;;;0.53;100.00
59650;BME280;46162;57.568;25.814;2023-02-28T08:34:47;101321.03;;;0.53;100.00
59650;BME280;46162;57.568;25.814;2023-02-28T08:37:15;101309.03;;;0.45;100.00
59650;BME280;46162;57.568;25.814;2023-02-28T08:39:44;101307.31;;;0.43;100.00
59650;BME280;46162;57.568;25.814;2023-02-28T08:42:12;101308.69;;;0.52;100.00
59650;BME280;46162;57.568;25.814;2023-02-28T08:44:42;101310.53;;;0.50;100.00
59650;BME280;46162;57.568;25.814;2023-02-28T08:47:11;101297.75;;;0.58;100.00
59650;BME280;46162;57.568;25.814;2023-02-28T08:49:39;101309.16;;;0.60;100.00
59650;BME280;46162;57.568;25.814;2023-02-28T08:52:08;101311.75;;;0.62;100.00
59650;BME280;46162;57.568;25.814;2023-02-28T08:54:37;101306.16;;;0.68;100.00
59650;BME280;46162;57.568;25.814;2023-02-28T08:57:05;101300.19;;;0.63;100.00
59650;BME280;46162;57.568;25.814;2023-02-28T08:59:34;101302.91;;;0.61;100.00
59650;BME280;46162;57.568;25.814;2023-02-28T09:02:04;101302.78;;;0.64;100.00
59650;BME280;46162;57.568;25.814;2023-02-28T09:04:33;101298.75;;;0.75;100.00
59650;BME280;46162;57.568;25.814;2023-02-28T09:07:02;101305.78;;;0.76;100.00
59650;BME280;46162;57.568;25.814;2023-02-28T09:09:31;101301.72;;;0.86;100.00
59650;BME280;46162;57.568;25.814;2023-02-28T09:11:59;101295.28;;;0.92;100.00
59650;BME280;46162;57.568;25.814;2023-02-28T09:14:28;101295.91;;;0.97;100.00
59650;BME280;46162;57.568;25.814;2023-02-28T09:16:58;101289.88;;;0.93;100.00
59650;BME280;46162;57.568;25.814;2023-02-28T09:19:28;101287.94;;;0.97;100.00
59650;BME280;46162;57.568;25.814;2023-02-28T09:21:56;101288.78;;;0.97;100.00
59650;BME280;46162;57.568;25.814;2023-02-28T09:24:25;101297.25;;;1.05;100.00
59650;BME280;46162;57.568;25.814;2023-02-28T09:26:53;101287.44;;;1.06;100.00
59650;BME280;46162;57.568;25.814;2023-02-28T09:29:31;101268.44;;;1.14;100.00
59650;BME280;46162;57.568;25.814;2023-02-28T09:31:59;101275.97;;;1.05;100.00
59650;BME280;46162;57.568;25.814;2023-02-28T09:34:30;101273.31;;;1.05;100.00
59650;BME280;46162;57.568;25.814;2023-02-28T09:36:59;101275.81;;;1.08;100.00
59650;BME280;46162;57.568;25.814;2023-02-28T09:39:27;101278.25;;;1.13;100.00
59650;BME280;46162;57.568;25.814;2023-02-28T09:41:57;101274.66;;;1.14;100.00
59650;BME280;46162;57.568;25.814;2023-02-28T09:44:30;101277.84;;;1.21;100.00
59650;BME280;46162;57.568;25.814;2023-02-28T09:47:04;101272.47;;;1.22;100.00
59650;BME280;46162;57.568;25.814;2023-02-28T09:49:41;101282.41;;;1.19;100.00
59650;BME280;46162;57.568;25.814;2023-02-28T09:52:14;101285.38;;;1.30;100.00
59650;BME280;46162;57.568;25.814;2023-02-28T09:54:44;101278.19;;;1.32;100.00
59650;BME280;46162;57.568;25.814;2023-02-28T09:57:18;101269.56;;;1.27;100.00
59650;BME280;46162;57.568;25.814;2023-02-28T09:59:57;101265.66;;;1.17;100.00
59650;BME280;46162;57.568;25.814;2023-02-28T10:02:56;101271.78;;;1.19;100.00
59650;BME280;46162;57.568;25.814;2023-02-28T10:05:34;101275.97;;;1.23;100.00
59650;BME280;46162;57.568;25.814;2023-02-28T10:08:13;101268.50;;;1.31;100.00
59650;BME280;46162;57.568;25.814;2023-02-28T10:10:44;101273.81;;;1.31;100.00
59650;BME280;46162;57.568;25.814;2023-02-28T10:13:20;101281.28;;;1.40;100.00
59650;BME280;46162;57.568;25.814;2023-02-28T10:15:59;101288.50;;;1.38;100.00
59650;BME280;46162;57.568;25.814;2023-02-28T10:18:34;101276.28;;;1.52;100.00
59650;BME280;46162;57.568;25.814;2023-02-28T10:21:13;101282.41;;;1.54;100.00
59650;BME280;46162;57.568;25.814;2023-02-28T10:23:47;101274.66;;;1.49;100.00
59650;BME280;46162;57.568;25.814;2023-02-28T10:26:17;101263.41;;;1.44;100.00
59650;BME280;46162;57.568;25.814;2023-02-28T10:28:46;101255.47;;;1.42;100.00
59650;BME280;46162;57.568;25.814;2023-02-28T10:31:18;101258.75;;;1.47;100.00
59650;BME280;46162;57.568;25.814;2023-02-28T10:33:47;101252.88;;;1.41;100.00
59650;BME280;46162;57.568;25.814;2023-02-28T10:36:19;101246.47;;;1.45;100.00
59650;BME280;46162;57.568;25.814;2023-02-28T10:38:48;101237.72;;;1.43;100.00
59650;BME280;46162;57.568;25.814;2023-02-28T10:41:27;101230.44;;;1.46;100.00
59650;BME280;46162;57.568;25.814;2023-02-28T10:44:19;101240.31;;;1.44;100.00
59650;BME280;46162;57.568;25.814;2023-02-28T10:46:49;101238.09;;;1.53;100.00
59650;BME280;46162;57.568;25.814;2023-02-28T10:49:21;101220.19;;;1.56;100.00
59650;BME280;46162;57.568;25.814;2023-02-28T10:51:54;101229.09;;;1.55;100.00
59650;BME280;46162;57.568;25.814;2023-02-28T10:54:28;101243.91;;;1.61;100.00
59650;BME280;46162;57.568;25.814;2023-02-28T10:57:17;101245.25;;;1.68;100.00
59650;BME280;46162;57.568;25.814;2023-02-28T10:59:50;101245.34;;;1.66;100.00
59650;BME280;46162;57.568;25.814;2023-02-28T11:02:34;101246.38;;;1.64;100.00
59650;BME280;46162;57.568;25.814;2023-02-28T11:05:23;101257.03;;;1.64;100.00
59650;BME280;46162;57.568;25.814;2023-02-28T11:07:55;101257.88;;;1.64;100.00
59650;BME280;46162;57.568;25.814;2023-02-28T11:10:26;101257.53;;;1.70;100.00
59650;BME280;46162;57.568;25.814;2023-02-28T11:13:28;101265.47;;;1.72;100.00
59650;BME280;46162;57.568;25.814;2023-02-28T11:16:49;101265.50;;;1.55;100.00
59650;BME280;46162;57.568;25.814;2023-02-28T11:19:23;101279.41;;;1.60;100.00
59650;BME280;46162;57.568;25.814;2023-02-28T11:21:55;101278.50;;;1.61;100.00
59650;BME280;46162;57.568;25.814;2023-02-28T11:24:29;101273.47;;;1.55;100.00
59650;BME280;46162;57.568;25.814;2023-02-28T11:26:58;101271.91;;;1.50;100.00
59650;BME280;46162;57.568;25.814;2023-02-28T11:29:29;101272.44;;;1.57;100.00
59650;BME280;46162;57.568;25.814;2023-02-28T11:32:02;101265.88;;;1.64;100.00
59650;BME280;46162;57.568;25.814;2023-02-28T11:34:32;101273.16;;;1.61;100.00
59650;BME280;46162;57.568;25.814;2023-02-28T11:37:01;101282.06;;;1.60;100.00
59650;BME280;46162;57.568;25.814;2023-02-28T11:39:33;101276.75;;;1.60;100.00
59650;BME280;46162;57.568;25.814;2023-02-28T11:45:11;101270.13;;;1.51;100.00
59650;BME280;46162;57.568;25.814;2023-02-28T11:47:47;101269.00;;;1.55;100.00
59650;BME280;46162;57.568;25.814;2023-02-28T11:50:26;101266.66;;;1.66;100.00
59650;BME280;46162;57.568;25.814;2023-02-28T11:53:00;101282.78;;;1.63;100.00
59650;BME280;46162;57.568;25.814;2023-02-28T11:55:35;101280.19;;;1.62;100.00
59650;BME280;46162;57.568;25.814;2023-02-28T11:58:33;101268.69;;;1.61;100.00
59650;BME280;46162;57.568;25.814;2023-02-28T12:01:15;101275.84;;;1.61;100.00
59650;BME280;46162;57.568;25.814;2023-02-28T12:03:58;101277.47;;;1.63;100.00
59650;BME280;46162;57.568;25.814;2023-02-28T12:06:36;101275.03;;;1.59;100.00
59650;BME280;46162;57.568;25.814;2023-02-28T12:09:22;101268.16;;;1.55;100.00
59650;BME280;46162;57.568;25.814;2023-02-28T12:12:00;101257.03;;;1.64;100.00
59650;BME280;46162;57.568;25.814;2023-02-28T12:14:49;101257.06;;;1.46;100.00
59650;BME280;46162;57.568;25.814;2023-02-28T12:17:29;101277.16;;;1.52;100.00
59650;BME280;46162;57.568;25.814;2023-02-28T12:20:08;101286.44;;;1.43;100.00
59650;BME280;46162;57.568;25.814;2023-02-28T12:22:48;101292.09;;;1.37;100.00
59650;BME280;46162;57.568;25.814;2023-02-28T12:28:32;101286.38;;;1.45;100.00
59650;BME280;46162;57.568;25.814;2023-02-28T12:31:06;101276.69;;;1.44;100.00
59650;BME280;46162;57.568;25.814;2023-02-28T12:33:43;101285.84;;;1.38;100.00
59650;BME280;46162;57.568;25.814;2023-02-28T12:36:16;101281.47;;;1.37;100.00
59650;BME280;46162;57.568;25.814;2023-02-28T12:38:48;101270.97;;;1.34;100.00
59650;BME280;46162;57.568;25.814;2023-02-28T12:41:40;101275.28;;;1.37;100.00
59650;BME280;46162;57.568;25.814;2023-02-28T12:44:14;101262.78;;;1.39;100.00
59650;BME280;46162;57.568;25.814;2023-02-28T12:46:48;101275.19;;;1.38;100.00
59650;BME280;46162;57.568;25.814;2023-02-28T12:49:19;101282.25;;;1.39;100.00
59650;BME280;46162;57.568;25.814;2023-02-28T12:51:50;101284.91;;;1.39;100.00
59650;BME280;46162;57.568;25.814;2023-02-28T12:54:25;101282.47;;;1.35;100.00
59650;BME280;46162;57.568;25.814;2023-02-28T12:57:04;101279.13;;;1.31;100.00
59650;BME280;46162;57.568;25.814;2023-02-28T12:59:40;101292.28;;;1.34;100.00
59650;BME280;46162;57.568;25.814;2023-02-28T13:02:32;101277.31;;;1.32;100.00
59650;BME280;46162;57.568;25.814;2023-02-28T13:05:26;101283.34;;;1.35;100.00
59650;BME280;46162;57.568;25.814;2023-02-28T13:08:04;101283.34;;;1.35;100.00
59650;BME280;46162;57.568;25.814;2023-02-28T13:10:42;101275.44;;;1.34;100.00
59650;BME280;46162;57.568;25.814;2023-02-28T13:13:15;101276.06;;;1.39;100.00
59650;BME280;46162;57.568;25.814;2023-02-28T13:16:03;101272.69;;;1.35;100.00
59650;BME280;46162;57.568;25.814;2023-02-28T13:18:37;101267.22;;;1.38;100.00
59650;BME280;46162;57.568;25.814;2023-02-28T13:21:07;101269.13;;;1.36;100.00